createdAt,value
2019-06-01T00:00:33.113Z,0.00
2019-06-01T00:01:33.093Z,0.00
2019-06-01T00:02:33.109Z,0.00
2019-06-01T00:03:33.075Z,0.00
2019-06-01T00:04:33.065Z,0.00
2019-06-01T00:05:33.047Z,0.00
2019-06-01T00:06:33.036Z,0.00
2019-06-01T00:07:33.024Z,0.00
2019-06-01T00:08:33.042Z,0.00
2019-06-01T00:09:33.002Z,0.00
2019-06-01T00:10:32.992Z,0.00
2019-06-01T00:11:32.979Z,0.00
2019-06-01T00:12:32.967Z,0.00
2019-06-01T00:13:32.960Z,0.00
2019-06-01T00:14:32.970Z,0.00
2019-06-01T00:15:32.934Z,0.00
2019-06-01T00:16:32.925Z,0.00
2019-06-01T00:17:32.914Z,0.00
2019-06-01T00:18:32.900Z,0.00
2019-06-01T00:19:32.889Z,0.00
2019-06-01T00:20:32.894Z,0.00
2019-06-01T00:21:32.869Z,0.00
2019-06-01T00:22:32.857Z,0.00
2019-06-01T00:23:32.844Z,0.00
2019-06-01T00:24:32.836Z,0.00
2019-06-01T00:25:32.821Z,0.00
2019-06-01T00:26:32.828Z,0.00
2019-06-01T00:27:32.805Z,0.00
2019-06-01T00:28:32.804Z,0.00
2019-06-01T00:29:32.774Z,0.00
2019-06-01T00:30:32.767Z,0.00
2019-06-01T00:31:32.754Z,0.00
2019-06-01T00:32:32.765Z,0.00
2019-06-01T00:33:32.737Z,0.00
2019-06-01T00:34:32.718Z,0.00
2019-06-01T00:35:32.705Z,0.00
2019-06-01T00:36:32.696Z,0.00
2019-06-01T00:37:32.688Z,0.00
2019-06-01T00:38:32.694Z,0.00
2019-06-01T00:39:32.720Z,0.00
2019-06-01T00:40:32.647Z,0.00
2019-06-01T00:41:32.634Z,0.00
2019-06-01T00:42:32.631Z,0.00
2019-06-01T00:43:32.617Z,0.00
2019-06-01T00:44:32.616Z,0.00
2019-06-01T00:45:32.592Z,0.00
2019-06-01T00:46:32.576Z,0.00
2019-06-01T00:47:32.568Z,0.00
2019-06-01T00:48:32.559Z,0.00
2019-06-01T00:49:32.542Z,0.00
2019-06-01T00:50:32.548Z,0.00
2019-06-01T00:51:32.536Z,0.00
2019-06-01T00:52:32.511Z,0.00
2019-06-01T00:53:32.507Z,0.00
2019-06-01T00:54:32.490Z,0.00
2019-06-01T00:55:32.488Z,0.00
2019-06-01T00:56:32.479Z,0.00
2019-06-01T00:57:32.455Z,0.00
2019-06-01T00:58:32.442Z,0.00
2019-06-01T00:59:32.450Z,0.00
2019-06-01T01:00:43.113Z,0.00
2019-06-01T01:01:33.443Z,0.00
2019-06-01T01:02:32.401Z,0.00
2019-06-01T01:03:32.386Z,0.00
2019-06-01T01:04:32.384Z,0.00
2019-06-01T01:05:32.378Z,0.00
2019-06-01T01:06:32.352Z,0.00
2019-06-01T01:07:32.360Z,0.00
2019-06-01T01:08:32.328Z,0.00
2019-06-01T01:09:32.316Z,0.00
2019-06-01T01:10:32.305Z,0.00
2019-06-01T01:11:32.298Z,0.00
2019-06-01T01:12:32.286Z,0.00
2019-06-01T01:13:32.291Z,0.00
2019-06-01T01:14:32.259Z,0.00
2019-06-01T01:15:32.249Z,0.00
2019-06-01T01:16:32.239Z,0.00
2019-06-01T01:17:32.231Z,0.00
2019-06-01T01:18:32.216Z,0.00
2019-06-01T01:19:32.223Z,0.00
2019-06-01T01:20:32.200Z,0.00
2019-06-01T01:21:32.196Z,0.00
2019-06-01T01:22:32.168Z,0.00
2019-06-01T01:23:32.157Z,0.00
2019-06-01T01:24:32.147Z,0.00
2019-06-01T01:25:32.155Z,0.00
2019-06-01T01:26:32.124Z,0.00
2019-06-01T01:27:32.114Z,0.00
2019-06-01T01:28:32.130Z,0.00
2019-06-01T01:29:32.087Z,0.00
2019-06-01T01:30:32.079Z,0.00
2019-06-01T01:31:32.087Z,0.00
2019-06-01T01:32:32.055Z,0.00
2019-06-01T01:33:32.046Z,0.00
2019-06-01T01:34:32.037Z,0.00
2019-06-01T01:35:32.025Z,0.00
2019-06-01T01:36:32.005Z,0.00
2019-06-01T01:37:32.011Z,0.00
2019-06-01T01:38:31.992Z,0.00
2019-06-01T01:39:31.972Z,0.00
2019-06-01T01:40:31.960Z,0.00
2019-06-01T01:41:31.955Z,0.00
2019-06-01T01:42:31.955Z,0.00
2019-06-01T01:43:31.946Z,0.00
2019-06-01T01:44:31.919Z,0.00
2019-06-01T01:45:31.913Z,0.00
2019-06-01T01:46:31.894Z,0.00
2019-06-01T01:47:31.876Z,0.00
2019-06-01T01:48:31.868Z,0.00
2019-06-01T01:49:31.874Z,0.00
2019-06-01T01:50:31.853Z,0.00
2019-06-01T01:51:31.834Z,0.00
2019-06-01T01:52:31.822Z,0.00
2019-06-01T01:53:31.808Z,0.00
2019-06-01T01:54:31.799Z,0.00
2019-06-01T01:55:31.835Z,0.00
2019-06-01T01:56:31.793Z,0.00
2019-06-01T01:57:31.761Z,0.00
2019-06-01T01:58:31.751Z,0.00
2019-06-01T01:59:31.739Z,0.00
2019-06-01T02:00:31.731Z,0.00
2019-06-01T02:01:31.739Z,0.00
2019-06-01T02:02:31.708Z,0.00
2019-06-01T02:03:31.698Z,0.00
2019-06-01T02:04:31.687Z,0.00
2019-06-01T02:05:31.677Z,0.00
2019-06-01T02:06:31.661Z,0.00
2019-06-01T02:07:31.673Z,0.00
2019-06-01T02:08:31.644Z,0.00
2019-06-01T02:09:31.638Z,0.00
2019-06-01T02:10:31.618Z,0.00
2019-06-01T02:11:31.608Z,0.00
2019-06-01T02:12:31.595Z,0.00
2019-06-01T02:13:31.606Z,0.00
2019-06-01T02:14:31.575Z,0.00
2019-06-01T02:15:31.563Z,0.00
2019-06-01T02:16:31.548Z,0.00
2019-06-01T02:17:31.536Z,0.00
2019-06-01T02:18:31.536Z,0.00
2019-06-01T02:19:31.539Z,0.00
2019-06-01T02:20:31.507Z,0.00
2019-06-01T02:21:31.493Z,0.00
2019-06-01T02:22:31.485Z,0.00
2019-06-01T02:23:31.472Z,0.00
2019-06-01T02:24:31.470Z,0.00
2019-06-01T02:25:31.462Z,0.00
2019-06-01T02:26:31.437Z,0.00
2019-06-01T02:27:31.423Z,0.00
2019-06-01T02:28:31.411Z,0.00
2019-06-01T02:29:31.397Z,0.00
2019-06-01T02:30:31.391Z,0.00
2019-06-01T02:31:41.559Z,0.00
2019-06-01T02:32:32.365Z,0.00
2019-06-01T02:33:31.377Z,0.00
2019-06-01T02:34:31.346Z,0.00
2019-06-01T02:35:31.337Z,0.00
2019-06-01T02:36:31.329Z,0.00
2019-06-01T02:37:31.330Z,4.00
2019-06-01T02:38:31.319Z,4.00
2019-06-01T02:39:31.292Z,4.00
2019-06-01T02:40:31.274Z,4.00
2019-06-01T02:41:31.261Z,4.00
2019-06-01T02:42:31.263Z,4.00
2019-06-01T02:43:31.269Z,4.00
2019-06-01T02:44:31.233Z,4.00
2019-06-01T02:45:31.225Z,8.00
2019-06-01T02:46:35.340Z,4.00
2019-06-01T02:47:31.197Z,8.00
2019-06-01T02:48:31.186Z,8.00
2019-06-01T02:49:31.191Z,8.00
2019-06-01T02:50:31.160Z,8.00
2019-06-01T02:51:31.150Z,8.00
2019-06-01T02:52:31.148Z,12.00
2019-06-01T02:53:31.128Z,12.00
2019-06-01T02:54:31.117Z,16.00
2019-06-01T02:55:31.121Z,16.00
2019-06-01T02:56:31.092Z,20.00
2019-06-01T02:57:31.083Z,24.00
2019-06-01T02:58:31.069Z,24.00
2019-06-01T02:59:31.061Z,28.00
2019-06-01T03:00:31.048Z,32.00
2019-06-01T03:01:31.062Z,40.00
2019-06-01T03:02:31.041Z,44.00
2019-06-01T03:03:31.021Z,48.00
2019-06-01T03:04:31.006Z,56.00
2019-06-01T03:05:30.998Z,64.00
2019-06-01T03:06:30.985Z,72.00
2019-06-01T03:07:31.005Z,76.00
2019-06-01T03:08:30.965Z,88.00
2019-06-01T03:09:30.952Z,100.00
2019-06-01T03:10:30.937Z,108.00
2019-06-01T03:11:30.967Z,124.00
2019-06-01T03:12:30.923Z,136.00
2019-06-01T03:13:30.938Z,152.00
2019-06-01T03:14:30.894Z,164.00
2019-06-01T03:15:30.890Z,184.00
2019-06-01T03:16:30.880Z,204.00
2019-06-01T03:17:30.862Z,224.00
2019-06-01T03:18:30.856Z,244.00
2019-06-01T03:19:30.874Z,268.00
2019-06-01T03:20:30.834Z,292.00
2019-06-01T03:21:30.818Z,316.00
2019-06-01T03:22:30.810Z,344.00
2019-06-01T03:23:30.807Z,372.00
2019-06-01T03:24:30.786Z,408.00
2019-06-01T03:25:30.792Z,440.00
2019-06-01T03:26:30.770Z,480.00
2019-06-01T03:27:30.754Z,520.00
2019-06-01T03:28:30.743Z,556.00
2019-06-01T03:29:30.733Z,600.00
2019-06-01T03:30:30.730Z,644.00
2019-06-01T03:31:30.735Z,692.00
2019-06-01T03:32:36.769Z,740.00
2019-06-01T03:33:31.692Z,796.00
2019-06-01T03:34:30.682Z,848.00
2019-06-01T03:35:30.677Z,912.00
2019-06-01T03:36:30.676Z,968.00
2019-06-01T03:37:30.668Z,1028.00
2019-06-01T03:38:30.642Z,1088.00
2019-06-01T03:39:30.626Z,1152.00
2019-06-01T03:40:30.613Z,1212.00
2019-06-01T03:41:30.602Z,1276.00
2019-06-01T03:42:30.593Z,1340.00
2019-06-01T03:43:30.597Z,1400.00
2019-06-01T03:44:30.569Z,1456.00
2019-06-01T03:45:30.560Z,1508.00
2019-06-01T03:46:30.556Z,1576.00
2019-06-01T03:47:30.535Z,1668.00
2019-06-01T03:48:30.526Z,1772.00
2019-06-01T03:49:30.535Z,1860.00
2019-06-01T03:50:30.508Z,1944.00
2019-06-01T03:51:30.493Z,2040.00
2019-06-01T03:52:30.481Z,2140.00
2019-06-01T03:53:30.643Z,2248.00
2019-06-01T03:54:30.460Z,2336.00
2019-06-01T03:55:30.466Z,2424.00
2019-06-01T03:56:30.434Z,2516.00
2019-06-01T03:57:30.423Z,2608.00
2019-06-01T03:58:30.410Z,2712.00
2019-06-01T03:59:30.408Z,2804.00
2019-06-01T04:00:30.395Z,2872.00
2019-06-01T04:01:30.404Z,2940.00
2019-06-01T04:02:33.113Z,3020.00
2019-06-01T04:03:30.354Z,3140.00
2019-06-01T04:04:30.344Z,3288.00
2019-06-01T04:05:30.336Z,3432.00
2019-06-01T04:06:30.320Z,3596.00
2019-06-01T04:07:30.325Z,3820.00
2019-06-01T04:08:30.341Z,4036.00
2019-06-01T04:09:30.287Z,4216.00
2019-06-01T04:10:30.279Z,4384.00
2019-06-01T04:11:30.292Z,4532.00
2019-06-01T04:12:30.252Z,4660.00
2019-06-01T04:13:30.258Z,4804.00
2019-06-01T04:14:30.233Z,4772.00
2019-06-01T04:15:30.218Z,4636.00
2019-06-01T04:16:30.210Z,4688.00
2019-06-01T04:17:32.851Z,4948.00
2019-06-01T04:18:30.183Z,5220.00
2019-06-01T04:19:30.187Z,5628.00
2019-06-01T04:20:30.158Z,6224.00
2019-06-01T04:21:30.147Z,6872.00
2019-06-01T04:22:30.136Z,7520.00
2019-06-01T04:23:30.132Z,8492.00
2019-06-01T04:24:30.115Z,10040.00
2019-06-01T04:25:30.126Z,12408.00
2019-06-01T04:26:30.090Z,14720.00
2019-06-01T04:27:30.084Z,16256.00
2019-06-01T04:28:30.088Z,17312.00
2019-06-01T04:29:30.062Z,17376.00
2019-06-01T04:30:30.047Z,17248.00
2019-06-01T04:31:30.046Z,17536.00
2019-06-01T04:32:30.020Z,17856.00
2019-06-01T04:33:30.013Z,18688.00
2019-06-01T04:34:30.008Z,20416.00
2019-06-01T04:35:29.988Z,23200.00
2019-06-01T04:36:29.971Z,24000.00
2019-06-01T04:37:29.985Z,22432.00
2019-06-01T04:38:29.947Z,19200.00
2019-06-01T04:39:29.937Z,20736.00
2019-06-01T04:40:29.929Z,21664.00
2019-06-01T04:41:29.912Z,23360.00
2019-06-01T04:42:29.899Z,26816.00
2019-06-01T04:43:29.910Z,24864.00
2019-06-01T04:44:29.884Z,22048.00
2019-06-01T04:45:29.866Z,20288.00
2019-06-01T04:46:29.857Z,21184.00
2019-06-01T04:47:29.845Z,20320.00
2019-06-01T04:48:29.838Z,18368.00
2019-06-01T04:49:29.839Z,21952.00
2019-06-01T04:50:29.812Z,26496.00
2019-06-01T04:51:29.802Z,29184.00
2019-06-01T04:52:29.792Z,28864.00
2019-06-01T04:53:29.786Z,26400.00
2019-06-01T04:54:29.765Z,22048.00
2019-06-01T04:55:29.770Z,18944.00
2019-06-01T04:56:29.740Z,18592.00
2019-06-01T04:57:29.735Z,17248.00
2019-06-01T04:58:29.726Z,16256.00
2019-06-01T04:59:29.711Z,14944.00
2019-06-01T05:00:29.693Z,14136.00
2019-06-01T05:01:29.723Z,14156.00
2019-06-01T05:02:29.675Z,14196.00
2019-06-01T05:03:29.660Z,13144.00
2019-06-01T05:04:29.651Z,13320.00
2019-06-01T05:05:29.636Z,12916.00
2019-06-01T05:06:29.626Z,13120.00
2019-06-01T05:07:29.629Z,14320.00
2019-06-01T05:08:29.617Z,14924.00
2019-06-01T05:09:29.592Z,16032.00
2019-06-01T05:10:29.581Z,15840.00
2019-06-01T05:11:29.570Z,15648.00
2019-06-01T05:12:29.566Z,17088.00
2019-06-01T05:13:29.572Z,17280.00
2019-06-01T05:14:29.542Z,18016.00
2019-06-01T05:15:29.523Z,19328.00
2019-06-01T05:16:29.512Z,20832.00
2019-06-01T05:17:29.506Z,20736.00
2019-06-01T05:18:29.493Z,20896.00
2019-06-01T05:19:29.495Z,21504.00
2019-06-01T05:20:29.470Z,22656.00
2019-06-01T05:21:29.460Z,22208.00
2019-06-01T05:22:29.447Z,22432.00
2019-06-01T05:23:29.440Z,22208.00
2019-06-01T05:24:29.425Z,22336.00
2019-06-01T05:25:29.447Z,22656.00
2019-06-01T05:26:29.404Z,21888.00
2019-06-01T05:27:29.392Z,22304.00
2019-06-01T05:28:29.382Z,23744.00
2019-06-01T05:29:29.368Z,24096.00
2019-06-01T05:30:29.357Z,25504.00
2019-06-01T05:31:29.375Z,26720.00
2019-06-01T05:32:29.337Z,28320.00
2019-06-01T05:33:37.438Z,28480.00
2019-06-01T05:34:30.311Z,27808.00
2019-06-01T05:35:29.298Z,27264.00
2019-06-01T05:36:29.290Z,32576.00
2019-06-01T05:37:29.296Z,34816.00
2019-06-01T05:38:29.265Z,35552.00
2019-06-01T05:39:29.256Z,36576.00
2019-06-01T05:40:29.248Z,33760.00
2019-06-01T05:41:29.232Z,33280.00
2019-06-01T05:42:29.223Z,34048.00
2019-06-01T05:43:29.234Z,34720.00
2019-06-01T05:44:29.199Z,33856.00
2019-06-01T05:45:29.191Z,31104.00
2019-06-01T05:46:29.201Z,31296.00
2019-06-01T05:47:29.168Z,29440.00
2019-06-01T05:48:30.786Z,28352.00
2019-06-01T05:49:29.162Z,29024.00
2019-06-01T05:50:29.140Z,32576.00
2019-06-01T05:51:29.123Z,31488.00
2019-06-01T05:52:29.123Z,26400.00
2019-06-01T05:53:29.098Z,28096.00
2019-06-01T05:54:29.100Z,30432.00
2019-06-01T05:55:29.102Z,36128.00
2019-06-01T05:56:29.067Z,35584.00
2019-06-01T05:57:29.062Z,35136.00
2019-06-01T05:58:29.448Z,38976.00
2019-06-01T05:59:29.032Z,39008.00
2019-06-01T06:00:29.029Z,45760.00
2019-06-01T06:01:29.024Z,45888.00
2019-06-01T06:02:28.997Z,49664.00
2019-06-01T06:03:40.076Z,54848.00
2019-06-01T06:04:29.977Z,53408.00
2019-06-01T06:05:28.971Z,58432.00
2019-06-01T06:06:28.954Z,62784.00
2019-06-01T06:07:28.958Z,62816.00
2019-06-01T06:08:28.934Z,62112.00
2019-06-01T06:09:28.920Z,56224.00
2019-06-01T06:10:28.912Z,64192.00
2019-06-01T06:11:28.903Z,67328.00
2019-06-01T06:12:28.893Z,65536.00
2019-06-01T06:13:28.897Z,67648.00
2019-06-01T06:14:28.870Z,67584.00
2019-06-01T06:15:28.855Z,67584.00
2019-06-01T06:16:28.844Z,69536.00
2019-06-01T06:17:28.832Z,70560.00
2019-06-01T06:18:28.825Z,69408.00
2019-06-01T06:19:28.830Z,68320.00
2019-06-01T06:20:28.803Z,68352.00
2019-06-01T06:21:28.788Z,69664.00
2019-06-01T06:22:28.783Z,69696.00
2019-06-01T06:23:28.780Z,68000.00
2019-06-01T06:24:28.761Z,64032.00
2019-06-01T06:25:31.047Z,68064.00
2019-06-01T06:26:28.743Z,66336.00
2019-06-01T06:27:28.728Z,64032.00
2019-06-01T06:28:28.717Z,69408.00
2019-06-01T06:29:28.704Z,71264.00
2019-06-01T06:30:28.701Z,72192.00
2019-06-01T06:31:28.705Z,74496.00
2019-06-01T06:32:28.675Z,68064.00
2019-06-01T06:33:28.672Z,72960.00
2019-06-01T06:34:28.654Z,70016.00
2019-06-01T06:35:28.639Z,71456.00
2019-06-01T06:36:28.630Z,60960.00
2019-06-01T06:37:28.656Z,78816.00
2019-06-01T06:38:28.621Z,79456.00
2019-06-01T06:39:28.600Z,78048.00
2019-06-01T06:40:28.592Z,80832.00
2019-06-01T06:41:28.574Z,82848.00
2019-06-01T06:42:28.564Z,79104.00
2019-06-01T06:43:32.843Z,75872.00
2019-06-01T06:44:28.554Z,79040.00
2019-06-01T06:45:28.531Z,83488.00
2019-06-01T06:46:28.525Z,87360.00
2019-06-01T06:47:28.520Z,85248.00
2019-06-01T06:48:28.504Z,88128.00
2019-06-01T06:49:28.515Z,89408.00
2019-06-01T06:50:28.482Z,89824.00
2019-06-01T06:51:28.472Z,88832.00
2019-06-01T06:52:28.465Z,85792.00
2019-06-01T06:53:34.979Z,84288.00
2019-06-01T06:54:29.465Z,83680.00
2019-06-01T06:55:28.424Z,83232.00
2019-06-01T06:56:28.429Z,81472.00
2019-06-01T06:57:28.407Z,79520.00
2019-06-01T06:58:28.395Z,80416.00
2019-06-01T06:59:28.393Z,62496.00
2019-06-01T07:00:28.401Z,61376.00
2019-06-01T07:01:28.370Z,55968.00
2019-06-01T07:02:28.363Z,61056.00
2019-06-01T07:03:28.343Z,61312.00
2019-06-01T07:04:28.338Z,64064.00
2019-06-01T07:05:31.321Z,71616.00
2019-06-01T07:06:28.345Z,72832.00
2019-06-01T07:07:28.302Z,71488.00
2019-06-01T07:08:28.295Z,71296.00
2019-06-01T07:09:28.429Z,72256.00
2019-06-01T07:10:28.363Z,75328.00
2019-06-01T07:11:29.397Z,75616.00
2019-06-01T07:12:28.270Z,76448.00
2019-06-01T07:13:28.249Z,77216.00
2019-06-01T07:14:28.232Z,73312.00
2019-06-01T07:15:28.233Z,75488.00
2019-06-01T07:16:28.215Z,78976.00
2019-06-01T07:17:28.211Z,81152.00
2019-06-01T07:18:28.205Z,81856.00
2019-06-01T07:19:28.181Z,83136.00
2019-06-01T07:20:28.188Z,83040.00
2019-06-01T07:21:28.158Z,81632.00
2019-06-01T07:22:28.169Z,80800.00
2019-06-01T07:23:28.140Z,81152.00
2019-06-01T07:24:28.222Z,81152.00
2019-06-01T07:25:28.853Z,78656.00
2019-06-01T07:26:28.247Z,81792.00
2019-06-01T07:27:28.366Z,83168.00
2019-06-01T07:28:28.398Z,83904.00
2019-06-01T07:29:28.409Z,83808.00
2019-06-01T07:30:28.467Z,84800.00
2019-06-01T07:31:28.407Z,83840.00
2019-06-01T07:32:28.622Z,86528.00
2019-06-01T07:33:28.564Z,87552.00
2019-06-01T07:34:37.845Z,87744.00
2019-06-01T07:35:29.030Z,85248.00
2019-06-01T07:36:28.704Z,88288.00
2019-06-01T07:37:28.584Z,97056.00
2019-06-01T07:38:28.954Z,101760.00
2019-06-01T07:39:29.060Z,103072.00
2019-06-01T07:40:28.788Z,96320.00
2019-06-01T07:41:28.836Z,88256.00
2019-06-01T07:42:29.313Z,87648.00
2019-06-01T07:43:29.003Z,89728.00
2019-06-01T07:44:29.257Z,89792.00
2019-06-01T07:45:29.373Z,90976.00
2019-06-01T07:46:28.997Z,92160.00
2019-06-01T07:47:29.081Z,92480.00
2019-06-01T07:48:29.093Z,92288.00
2019-06-01T07:49:29.088Z,94240.00
2019-06-01T07:50:28.106Z,93824.00
2019-06-01T07:51:27.856Z,94080.00
2019-06-01T07:52:28.287Z,94464.00
2019-06-01T07:53:27.855Z,95008.00
2019-06-01T07:54:28.493Z,95456.00
2019-06-01T07:55:27.817Z,94944.00
2019-06-01T07:56:28.668Z,94784.00
2019-06-01T07:57:27.809Z,94112.00
2019-06-01T07:58:28.790Z,95744.00
2019-06-01T07:59:28.330Z,98592.00
2019-06-01T08:00:28.978Z,96960.00
2019-06-01T08:01:29.084Z,93344.00
2019-06-01T08:02:29.554Z,92000.00
2019-06-01T08:03:31.143Z,94752.00
2019-06-01T08:04:31.782Z,96608.00
2019-06-01T08:05:28.717Z,95584.00
2019-06-01T08:06:28.830Z,94208.00
2019-06-01T08:07:27.833Z,97472.00
2019-06-01T08:08:27.688Z,97664.00
2019-06-01T08:09:27.895Z,97728.00
2019-06-01T08:10:27.775Z,97184.00
2019-06-01T08:11:31.090Z,99456.00
2019-06-01T08:12:29.700Z,100896.00
2019-06-01T08:13:31.517Z,100128.00
2019-06-01T08:14:28.690Z,99584.00
2019-06-01T08:15:28.272Z,98624.00
2019-06-01T08:16:27.943Z,98368.00
2019-06-01T08:17:28.103Z,96352.00
2019-06-01T08:18:28.211Z,96096.00
2019-06-01T08:19:28.074Z,96672.00
2019-06-01T08:20:28.695Z,99936.00
2019-06-01T08:21:28.101Z,98528.00
2019-06-01T08:22:28.010Z,100704.00
2019-06-01T08:23:28.357Z,102624.00
2019-06-01T08:24:28.309Z,103328.00
2019-06-01T08:25:28.591Z,97888.00
2019-06-01T08:26:28.545Z,96736.00
2019-06-01T08:27:28.476Z,97120.00
2019-06-01T08:28:29.050Z,96480.00
2019-06-01T08:29:28.730Z,99136.00
2019-06-01T08:30:28.660Z,97632.00
2019-06-01T08:31:28.600Z,96000.00
2019-06-01T08:32:28.613Z,94784.00
2019-06-01T08:33:30.238Z,96160.00
2019-06-01T08:34:27.461Z,96832.00
2019-06-01T08:35:27.435Z,96288.00
2019-06-01T08:36:27.438Z,97632.00
2019-06-01T08:37:27.413Z,89984.00
2019-06-01T08:38:27.543Z,98176.00
2019-06-01T08:39:27.482Z,94208.00
2019-06-01T08:40:27.450Z,95808.00
2019-06-01T08:41:27.637Z,100096.00
2019-06-01T08:42:27.458Z,101280.00
2019-06-01T08:43:27.630Z,108384.00
2019-06-01T08:44:27.763Z,120320.00
2019-06-01T08:45:27.688Z,123392.00
2019-06-01T08:46:27.694Z,125152.00
2019-06-01T08:47:27.827Z,128704.00
2019-06-01T08:48:27.738Z,125440.00
2019-06-01T08:49:28.033Z,123392.00
2019-06-01T08:50:27.741Z,120960.00
2019-06-01T08:51:28.205Z,118176.00
2019-06-01T08:52:28.077Z,112896.00
2019-06-01T08:53:27.874Z,110208.00
2019-06-01T08:54:28.115Z,110784.00
2019-06-01T08:55:28.045Z,109440.00
2019-06-01T08:56:28.241Z,101600.00
2019-06-01T08:57:28.279Z,97568.00
2019-06-01T08:58:28.198Z,99904.00
2019-06-01T08:59:28.394Z,97952.00
2019-06-01T09:00:28.400Z,100160.00
2019-06-01T09:01:28.540Z,96960.00
2019-06-01T09:02:28.966Z,94656.00
2019-06-01T09:03:27.768Z,89728.00
2019-06-01T09:04:27.218Z,90336.00
2019-06-01T09:05:28.916Z,94432.00
2019-06-01T09:06:27.170Z,91936.00
2019-06-01T09:07:27.157Z,97888.00
2019-06-01T09:08:27.203Z,98848.00
2019-06-01T09:09:27.157Z,100800.00
2019-06-01T09:10:27.490Z,104032.00
2019-06-01T09:11:27.128Z,103680.00
2019-06-01T09:12:27.302Z,102912.00
2019-06-01T09:13:27.246Z,105408.00
2019-06-01T09:14:27.266Z,100640.00
2019-06-01T09:15:27.591Z,97920.00
2019-06-01T09:16:27.770Z,97312.00
2019-06-01T09:17:27.229Z,100320.00
2019-06-01T09:18:27.577Z,99296.00
2019-06-01T09:19:27.347Z,101536.00
2019-06-01T09:20:27.443Z,98528.00
2019-06-01T09:21:27.486Z,100576.00
2019-06-01T09:22:27.533Z,104192.00
2019-06-01T09:23:27.621Z,104576.00
2019-06-01T09:24:27.678Z,104768.00
2019-06-01T09:25:27.510Z,98080.00
2019-06-01T09:26:27.771Z,97792.00
2019-06-01T09:27:27.724Z,92832.00
2019-06-01T09:28:27.855Z,94816.00
2019-06-01T09:29:27.824Z,96832.00
2019-06-01T09:30:27.965Z,98848.00
2019-06-01T09:31:28.349Z,100800.00
2019-06-01T09:32:27.905Z,101856.00
2019-06-01T09:33:28.123Z,99264.00
2019-06-01T09:34:28.323Z,99808.00
2019-06-01T09:35:44.710Z,98912.00
2019-06-01T09:36:28.344Z,95008.00
2019-06-01T09:37:26.924Z,96256.00
2019-06-01T09:38:27.619Z,98592.00
2019-06-01T09:39:26.898Z,100480.00
2019-06-01T09:40:28.256Z,103296.00
2019-06-01T09:41:26.916Z,103712.00
2019-06-01T09:42:26.875Z,104384.00
2019-06-01T09:43:26.864Z,103040.00
2019-06-01T09:44:26.959Z,102784.00
2019-06-01T09:45:27.815Z,104160.00
2019-06-01T09:46:26.993Z,102048.00
2019-06-01T09:47:27.126Z,103296.00
2019-06-01T09:48:27.081Z,103072.00
2019-06-01T09:49:27.258Z,102560.00
2019-06-01T09:50:27.236Z,102240.00
2019-06-01T09:51:27.344Z,100544.00
2019-06-01T09:52:27.384Z,101152.00
2019-06-01T09:53:27.489Z,100576.00
2019-06-01T09:54:27.346Z,101920.00
2019-06-01T09:55:27.510Z,101120.00
2019-06-01T09:56:29.028Z,101312.00
2019-06-01T09:57:27.670Z,97344.00
2019-06-01T09:58:28.059Z,96640.00
2019-06-01T09:59:27.752Z,97984.00
2019-06-01T10:00:26.771Z,98048.00
2019-06-01T10:01:28.021Z,97728.00
2019-06-01T10:02:28.044Z,98016.00
2019-06-01T10:03:28.126Z,98656.00
2019-06-01T10:04:28.174Z,103008.00
2019-06-01T10:05:26.703Z,103040.00
2019-06-01T10:06:26.686Z,103072.00
2019-06-01T10:07:26.688Z,102592.00
2019-06-01T10:08:26.665Z,102560.00
2019-06-01T10:09:26.704Z,101856.00
2019-06-01T10:10:26.672Z,102560.00
2019-06-01T10:11:26.652Z,104000.00
2019-06-01T10:12:26.631Z,104896.00
2019-06-01T10:13:26.625Z,105984.00
2019-06-01T10:14:26.673Z,104224.00
2019-06-01T10:15:26.640Z,103360.00
2019-06-01T10:16:26.640Z,106432.00
2019-06-01T10:17:26.594Z,103520.00
2019-06-01T10:18:27.209Z,101312.00
2019-06-01T10:19:26.592Z,102944.00
2019-06-01T10:20:26.578Z,100512.00
2019-06-01T10:21:26.581Z,102720.00
2019-06-01T10:22:26.599Z,102784.00
2019-06-01T10:23:26.569Z,100384.00
2019-06-01T10:24:26.560Z,100736.00
2019-06-01T10:25:26.533Z,102656.00
2019-06-01T10:26:26.544Z,101472.00
2019-06-01T10:27:26.518Z,100192.00
2019-06-01T10:28:26.532Z,102112.00
2019-06-01T10:29:26.530Z,101344.00
2019-06-01T10:30:26.492Z,100608.00
2019-06-01T10:31:26.489Z,102016.00
2019-06-01T10:32:26.492Z,105376.00
2019-06-01T10:33:26.471Z,105344.00
2019-06-01T10:34:26.477Z,103712.00
2019-06-01T10:35:26.469Z,102944.00
2019-06-01T10:36:26.456Z,98496.00
2019-06-01T10:37:26.440Z,96320.00
2019-06-01T10:38:26.435Z,96896.00
2019-06-01T10:39:26.454Z,96928.00
2019-06-01T10:40:26.448Z,97056.00
2019-06-01T10:41:26.406Z,95008.00
2019-06-01T10:42:26.436Z,94144.00
2019-06-01T10:43:26.437Z,97184.00
2019-06-01T10:44:26.391Z,100640.00
2019-06-01T10:45:26.410Z,101856.00
2019-06-01T10:46:26.382Z,101088.00
2019-06-01T10:47:26.376Z,98368.00
2019-06-01T10:48:26.351Z,101632.00
2019-06-01T10:49:26.367Z,98208.00
2019-06-01T10:50:26.333Z,100352.00
2019-06-01T10:51:26.333Z,93920.00
2019-06-01T10:52:26.344Z,93696.00
2019-06-01T10:53:26.319Z,91904.00
2019-06-01T10:54:26.300Z,84736.00
2019-06-01T10:55:26.421Z,93184.00
2019-06-01T10:56:26.289Z,97600.00
2019-06-01T10:57:26.280Z,92000.00
2019-06-01T10:58:26.292Z,86336.00
2019-06-01T10:59:26.287Z,92448.00
2019-06-01T11:00:37.848Z,93536.00
2019-06-01T11:01:27.247Z,80864.00
2019-06-01T11:02:26.239Z,92800.00
2019-06-01T11:03:26.230Z,87680.00
2019-06-01T11:04:26.262Z,92384.00
2019-06-01T11:05:26.253Z,95872.00
2019-06-01T11:06:36.608Z,96608.00
2019-06-01T11:07:27.194Z,96736.00
2019-06-01T11:08:26.189Z,100000.00
2019-06-01T11:09:26.183Z,99104.00
2019-06-01T11:10:26.191Z,98016.00
2019-06-01T11:11:26.161Z,101472.00
2019-06-01T11:12:26.179Z,99904.00
2019-06-01T11:13:26.161Z,93984.00
2019-06-01T11:14:26.152Z,97216.00
2019-06-01T11:15:26.127Z,96448.00
2019-06-01T11:16:26.140Z,96800.00
2019-06-01T11:17:26.120Z,94336.00
2019-06-01T11:18:26.101Z,93056.00
2019-06-01T11:19:26.130Z,93376.00
2019-06-01T11:20:26.087Z,91104.00
2019-06-01T11:21:26.074Z,88288.00
2019-06-01T11:22:26.100Z,88832.00
2019-06-01T11:23:26.056Z,89824.00
2019-06-01T11:24:26.067Z,91072.00
2019-06-01T11:25:26.038Z,94144.00
2019-06-01T11:26:26.038Z,91840.00
2019-06-01T11:27:26.024Z,92608.00
2019-06-01T11:28:26.031Z,90592.00
2019-06-01T11:29:25.996Z,91456.00
2019-06-01T11:30:26.000Z,92064.00
2019-06-01T11:31:25.987Z,91872.00
2019-06-01T11:32:25.977Z,92512.00
2019-06-01T11:33:25.961Z,92320.00
2019-06-01T11:34:25.975Z,89152.00
2019-06-01T11:35:25.978Z,88768.00
2019-06-01T11:36:25.940Z,90368.00
2019-06-01T11:37:25.922Z,89408.00
2019-06-01T11:38:25.920Z,88160.00
2019-06-01T11:39:25.933Z,87808.00
2019-06-01T11:40:25.922Z,90880.00
2019-06-01T11:41:25.891Z,88992.00
2019-06-01T11:42:25.880Z,92704.00
2019-06-01T11:43:25.873Z,92448.00
2019-06-01T11:44:25.867Z,90528.00
2019-06-01T11:45:25.887Z,91840.00
2019-06-01T11:46:25.885Z,90816.00
2019-06-01T11:47:25.846Z,90592.00
2019-06-01T11:48:25.839Z,92224.00
2019-06-01T11:49:25.821Z,89536.00
2019-06-01T11:50:25.818Z,89952.00
2019-06-01T11:51:25.804Z,82496.00
2019-06-01T11:52:25.810Z,46240.00
2019-06-01T11:53:25.794Z,16256.00
2019-06-01T11:54:25.775Z,13436.00
2019-06-01T11:55:25.766Z,12556.00
2019-06-01T11:56:25.758Z,12064.00
2019-06-01T11:57:25.750Z,11720.00
2019-06-01T11:58:25.762Z,11448.00
2019-06-01T11:59:25.728Z,11268.00
2019-06-01T12:00:25.718Z,11192.00
2019-06-01T12:01:25.721Z,11092.00
2019-06-01T12:02:25.699Z,10948.00
2019-06-01T12:03:25.692Z,10788.00
2019-06-01T12:04:25.707Z,10632.00
2019-06-01T12:05:25.691Z,10520.00
2019-06-01T12:06:25.656Z,10524.00